createdAt,value
2023-05-09T00:01:36.106Z,100201.06
2023-05-09T00:06:41.117Z,100196.28
2023-05-09T00:11:45.155Z,100215.16
2023-05-09T00:16:49.207Z,100225.34
2023-05-09T00:21:53.048Z,100238.16
2023-05-09T00:26:56.957Z,100258.75
2023-05-09T00:32:01.195Z,100269.59
2023-05-09T00:37:05.143Z,100221.81
2023-05-09T00:42:09.769Z,100286.09
2023-05-09T00:47:13.656Z,100247.13
2023-05-09T00:52:18.508Z,100298.19
2023-05-09T00:57:23.865Z,100291.41
2023-05-09T01:02:28.471Z,100284.81
2023-05-09T01:07:53.654Z,100284.34
2023-05-09T01:13:16.781Z,100287.38
2023-05-09T01:18:32.957Z,100306.94
2023-05-09T01:23:45.959Z,100312.78
2023-05-09T01:29:28.811Z,100315.09
2023-05-09T01:34:36.144Z,100329.94
2023-05-09T01:39:43.407Z,100347.66
2023-05-09T01:44:48.638Z,100337.25
2023-05-09T01:49:54.931Z,100281.81
2023-05-09T01:55:02.363Z,100308.91
2023-05-09T02:00:10.900Z,100330.94
2023-05-09T02:05:19.364Z,100332.09
2023-05-09T02:10:26.078Z,100332.47
2023-05-09T02:15:31.265Z,100339.41
2023-05-09T02:20:37.953Z,100350.84
2023-05-09T02:25:42.356Z,100339.56
2023-05-09T02:30:48.177Z,100373.13
2023-05-09T02:35:53.496Z,100319.41
2023-05-09T02:40:57.551Z,100340.72
2023-05-09T02:46:03.615Z,100397.44
2023-05-09T02:51:07.460Z,100344.84
2023-05-09T02:56:11.699Z,100391.34
2023-05-09T03:01:15.740Z,100393.16
2023-05-09T03:06:19.849Z,100392.97
2023-05-09T03:11:24.083Z,100380.69
2023-05-09T03:16:28.636Z,100390.16
2023-05-09T03:21:33.710Z,100396.28
2023-05-09T03:26:38.368Z,100416.94
2023-05-09T03:31:43.285Z,100434.00
2023-05-09T03:36:47.464Z,100444.84
2023-05-09T03:41:52.326Z,100450.09
2023-05-09T03:46:56.384Z,100467.13
2023-05-09T03:52:01.695Z,100449.09
2023-05-09T03:57:08.253Z,100466.41
2023-05-09T04:02:13.102Z,100459.44
2023-05-09T04:07:17.127Z,100436.28
2023-05-09T04:12:23.380Z,100482.44
2023-05-09T04:17:27.884Z,100496.53
2023-05-09T04:22:32.314Z,100512.22
2023-05-09T04:27:36.837Z,100501.59
2023-05-09T04:32:46.490Z,100501.94
2023-05-09T04:37:52.673Z,100510.53
2023-05-09T04:42:58.034Z,100502.25
2023-05-09T04:48:05.141Z,100487.09
2023-05-09T04:53:10.034Z,100503.47
2023-05-09T04:58:14.239Z,100474.34
2023-05-09T05:03:19.783Z,100466.34
2023-05-09T05:08:23.735Z,100456.41
2023-05-09T05:13:27.964Z,100435.84
2023-05-09T05:18:35.515Z,100442.03
2023-05-09T05:23:40.080Z,100440.28
2023-05-09T05:28:44.633Z,100455.75
2023-05-09T05:33:50.283Z,100433.84
2023-05-09T05:38:54.476Z,100427.66
2023-05-09T05:43:58.555Z,100405.38
2023-05-09T05:49:02.617Z,100419.91
2023-05-09T05:54:06.574Z,100414.81
2023-05-09T05:59:13.528Z,100435.34
2023-05-09T06:04:18.917Z,100413.47
2023-05-09T06:09:22.860Z,100418.03
2023-05-09T06:14:26.812Z,100420.06
2023-05-09T06:19:30.898Z,100401.56
2023-05-09T06:24:36.258Z,100404.38
2023-05-09T06:29:41.086Z,100406.03
2023-05-09T06:34:45.067Z,100394.28
2023-05-09T06:39:49.267Z,100393.56
2023-05-09T06:44:53.539Z,100381.66
2023-05-09T06:49:57.356Z,100407.75
2023-05-09T06:55:01.304Z,100395.66
2023-05-09T07:00:07.157Z,100399.84
2023-05-09T07:05:11.631Z,100393.22
2023-05-09T07:10:15.700Z,100386.91
2023-05-09T07:15:32.460Z,100373.66
2023-05-09T07:20:43.631Z,100375.19
2023-05-09T07:25:47.461Z,100366.41
2023-05-09T07:30:51.901Z,100371.09
2023-05-09T07:35:56.321Z,100360.88
2023-05-09T07:41:00.350Z,100366.25
2023-05-09T07:46:04.672Z,100351.84
2023-05-09T07:51:08.729Z,100369.28
2023-05-09T07:56:14.188Z,100377.00
2023-05-09T08:01:18.006Z,100370.13
2023-05-09T08:06:22.161Z,100382.66
2023-05-09T08:11:27.135Z,100389.31
2023-05-09T08:16:31.220Z,100388.09
2023-05-09T08:21:35.051Z,100338.03
2023-05-09T08:26:39.268Z,100380.78
2023-05-09T08:31:43.304Z,100395.63
2023-05-09T08:36:47.810Z,100390.28
2023-05-09T08:41:52.919Z,100398.81
2023-05-09T08:47:02.120Z,100403.19
2023-05-09T08:52:06.479Z,100402.31
2023-05-09T08:57:10.598Z,100396.63
2023-05-09T09:02:15.936Z,100401.25
2023-05-09T09:07:21.726Z,100401.91
2023-05-09T09:12:25.803Z,100413.72
2023-05-09T09:17:31.503Z,100375.41
2023-05-09T09:22:37.709Z,100429.81
2023-05-09T09:27:43.013Z,100442.13
2023-05-09T09:32:47.349Z,100455.22
2023-05-09T09:38:00.125Z,100454.22
2023-05-09T09:43:10.588Z,100463.13
2023-05-09T09:48:14.070Z,100466.41
2023-05-09T09:53:21.436Z,100457.25
2023-05-09T09:58:28.112Z,100502.97
2023-05-09T10:03:40.202Z,100511.06
2023-05-09T10:08:50.070Z,100513.38
2023-05-09T10:13:54.296Z,100549.75
2023-05-09T10:18:58.331Z,100557.28
2023-05-09T10:24:04.451Z,100567.56
2023-05-09T10:29:13.895Z,100581.34
2023-05-09T10:34:19.017Z,100590.28
2023-05-09T10:39:24.361Z,100599.47
2023-05-09T10:44:28.313Z,100611.09
2023-05-09T10:49:34.933Z,100610.34
2023-05-09T10:54:40.906Z,100613.06
2023-05-09T10:59:45.929Z,100628.72
2023-05-09T11:04:50.116Z,100640.34
2023-05-09T11:10:07.209Z,100636.88
2023-05-09T11:15:12.028Z,100626.88
2023-05-09T11:20:16.646Z,100622.56
2023-05-09T11:25:29.980Z,100635.31
2023-05-09T11:30:43.452Z,100643.78
2023-05-09T11:35:47.887Z,100656.06
2023-05-09T11:40:52.980Z,100668.69
2023-05-09T11:45:58.268Z,100594.91
2023-05-09T11:51:04.392Z,100680.56
2023-05-09T11:56:08.472Z,100648.09
2023-05-09T12:01:13.567Z,100673.22
2023-05-09T12:06:18.847Z,100669.59
2023-05-09T12:11:24.736Z,100658.38
2023-05-09T12:16:28.676Z,100658.94
2023-05-09T12:21:32.612Z,100653.53
2023-05-09T12:26:36.927Z,100653.13
2023-05-09T12:31:43.051Z,100649.09
2023-05-09T12:36:52.419Z,100650.63
2023-05-09T12:42:33.397Z,100659.28
2023-05-09T12:47:42.900Z,100635.66
2023-05-09T12:53:02.887Z,100603.56
2023-05-09T12:58:07.894Z,100609.22
2023-05-09T13:03:38.708Z,100659.84
2023-05-09T13:08:42.880Z,100665.09
2023-05-09T13:13:46.812Z,100675.50
2023-05-09T13:18:50.965Z,100663.00
2023-05-09T13:23:55.008Z,100684.16
2023-05-09T13:28:59.396Z,100681.47
2023-05-09T13:34:03.484Z,100607.31
2023-05-09T13:39:07.348Z,100696.00
2023-05-09T13:44:11.269Z,100691.47
2023-05-09T13:49:15.256Z,100631.66
2023-05-09T13:54:21.018Z,100702.59
2023-05-09T13:59:25.036Z,100688.91
2023-05-09T14:04:30.617Z,100715.50
2023-05-09T14:09:40.809Z,100649.19
2023-05-09T14:14:44.661Z,100722.84
2023-05-09T14:19:48.826Z,100722.56
2023-05-09T14:24:53.651Z,100678.25
2023-05-09T14:29:58.047Z,100746.03
2023-05-09T14:35:02.289Z,100755.84
2023-05-09T14:40:08.122Z,100761.63
2023-05-09T14:45:14.222Z,100769.28
2023-05-09T14:50:18.269Z,100780.34
2023-05-09T14:55:23.991Z,100774.53
2023-05-09T15:00:29.230Z,100797.88
2023-05-09T15:05:33.608Z,100803.44
2023-05-09T15:10:37.557Z,100820.44
2023-05-09T15:15:42.532Z,100817.63
2023-05-09T15:20:46.547Z,100830.41
2023-05-09T15:25:50.673Z,100833.03
2023-05-09T15:30:55.045Z,100847.16
2023-05-09T15:36:04.152Z,100855.31
2023-05-09T15:41:09.976Z,100862.53
2023-05-09T15:46:15.912Z,100872.03
2023-05-09T15:51:20.045Z,100899.84
2023-05-09T15:56:24.317Z,100907.16
2023-05-09T16:01:28.344Z,100910.63
2023-05-09T16:06:34.378Z,100926.78
2023-05-09T16:11:38.495Z,100938.72
2023-05-09T16:16:43.504Z,100946.13
2023-05-09T16:21:47.984Z,100937.13
2023-05-09T16:26:52.029Z,100966.81
2023-05-09T16:31:56.023Z,100967.84
2023-05-09T16:37:00.145Z,100994.97
2023-05-09T16:42:05.007Z,100993.13
2023-05-09T16:47:08.958Z,101005.50
2023-05-09T16:52:13.227Z,101008.19
2023-05-09T16:57:17.766Z,101007.41
2023-05-09T17:02:21.814Z,101043.75
2023-05-09T17:07:25.772Z,101063.72
2023-05-09T17:12:29.926Z,101066.00
2023-05-09T17:17:34.388Z,101069.06
2023-05-09T17:22:39.086Z,101090.69
2023-05-09T17:27:43.406Z,101089.53
2023-05-09T17:32:47.297Z,101101.41
2023-05-09T17:37:51.826Z,101108.78
2023-05-09T17:42:55.700Z,101111.09
2023-05-09T17:48:00.799Z,101119.34
2023-05-09T17:53:04.929Z,101126.50
2023-05-09T17:58:09.214Z,101122.81
2023-05-09T18:03:13.427Z,101131.47
2023-05-09T18:08:17.960Z,101139.53
2023-05-09T18:13:25.314Z,101137.09
2023-05-09T18:18:31.878Z,101154.50
2023-05-09T18:23:36.037Z,101137.63
2023-05-09T18:28:40.527Z,101151.69
2023-05-09T18:33:45.122Z,101159.25
2023-05-09T18:38:48.944Z,101160.91
2023-05-09T18:43:53.964Z,101159.38
2023-05-09T18:48:57.984Z,101170.63
2023-05-09T18:54:02.053Z,101164.75
2023-05-09T18:59:07.517Z,101175.22
2023-05-09T19:04:11.668Z,101159.97
2023-05-09T19:09:15.655Z,101171.31
2023-05-09T19:14:20.178Z,101175.06
2023-05-09T19:19:24.135Z,101170.09
2023-05-09T19:24:28.782Z,101176.16
2023-05-09T19:29:32.790Z,101185.94
2023-05-09T19:34:37.402Z,101183.75
2023-05-09T19:39:41.349Z,101176.41
2023-05-09T19:44:47.379Z,101179.31
2023-05-09T19:49:51.491Z,101209.38
2023-05-09T19:54:56.031Z,101213.44
2023-05-09T19:59:59.889Z,101207.03
2023-05-09T20:05:04.539Z,101203.81
2023-05-09T20:10:09.703Z,101218.31
2023-05-09T20:15:14.441Z,101217.56
2023-05-09T20:20:19.097Z,101231.53
2023-05-09T20:25:23.941Z,101231.13
2023-05-09T20:30:28.028Z,101248.13
2023-05-09T20:35:32.251Z,101257.19
2023-05-09T20:40:36.750Z,101256.06
2023-05-09T20:45:40.842Z,101247.41
2023-05-09T20:50:44.924Z,101258.38
2023-05-09T20:55:50.429Z,101251.97
2023-05-09T21:00:55.032Z,101215.25
2023-05-09T21:05:59.621Z,101263.41
2023-05-09T21:11:03.740Z,101262.81
2023-05-09T21:16:07.764Z,101282.22
2023-05-09T21:21:12.118Z,101286.88
2023-05-09T21:26:17.210Z,101288.34
2023-05-09T21:31:21.516Z,101302.28
2023-05-09T21:36:25.919Z,101300.13
2023-05-09T21:41:29.733Z,101307.50
2023-05-09T21:46:34.421Z,101309.41
2023-05-09T21:51:38.572Z,101313.75
2023-05-09T21:56:43.255Z,101324.31
2023-05-09T22:01:47.289Z,101322.13
2023-05-09T22:06:51.423Z,101311.72
2023-05-09T22:11:55.437Z,101342.66
2023-05-09T22:17:00.130Z,101336.41
2023-05-09T22:22:04.307Z,101344.69
2023-05-09T22:27:12.263Z,101336.50
2023-05-09T22:32:16.236Z,101365.16
2023-05-09T22:37:20.249Z,101369.97
2023-05-09T22:42:24.263Z,101371.75
2023-05-09T22:47:28.168Z,101384.91
2023-05-09T22:52:32.363Z,101391.78
2023-05-09T22:57:36.500Z,101343.16
2023-05-09T23:02:40.666Z,101410.38
2023-05-09T23:07:45.712Z,101417.53
2023-05-09T23:12:49.595Z,101406.53
2023-05-09T23:17:53.702Z,101422.72
2023-05-09T23:22:57.843Z,101432.28
2023-05-09T23:28:02.067Z,101426.09
2023-05-09T23:33:06.115Z,101421.72
2023-05-09T23:38:10.285Z,101440.97
2023-05-09T23:43:14.630Z,101442.50
2023-05-09T23:48:18.406Z,101461.16
2023-05-09T23:53:22.705Z,101461.09
2023-05-09T23:58:26.497Z,101425.34
